sensor_id;sensor_type;location;lat;lon;timestamp;pressure;altitude;pressure_sealevel;temperature;humidity
26839;BME280;40088;51.214;6.786;2023-06-22T00:04:49;101519.03;;;21.62;67.13
26839;BME280;40088;51.214;6.786;2023-06-22T00:14:49;101522.88;;;21.61;67.16
26839;BME280;40088;51.214;6.786;2023-06-22T00:24:49;101517.34;;;21.61;67.52
26839;BME280;40088;51.214;6.786;2023-06-22T00:34:49;101519.03;;;21.62;67.13
26839;BME280;40088;51.214;6.786;2023-06-22T00:44:50;101518.19;;;21.62;67.10
26839;BME280;40088;51.214;6.786;2023-06-22T00:54:51;101515.41;;;21.62;67.21
26839;BME280;40088;51.214;6.786;2023-06-22T01:04:51;101510.72;;;21.62;67.08
26839;BME280;40088;51.214;6.786;2023-06-22T01:15:16;101501.56;;;21.62;66.92
26839;BME280;40088;51.214;6.786;2023-06-22T01:25:20;101493.22;;;21.62;66.93
26839;BME280;40088;51.214;6.786;2023-06-22T01:35:26;101478.50;;;21.61;66.90
26839;BME280;40088;51.214;6.786;2023-06-22T01:45:27;101474.66;;;21.62;66.78
26839;BME280;40088;51.214;6.786;2023-06-22T01:55:28;101471.03;;;21.62;67.03
26839;BME280;40088;51.214;6.786;2023-06-22T02:05:34;101474.88;;;21.61;67.09
26839;BME280;40088;51.214;6.786;2023-06-22T02:15:36;101470.19;;;21.61;67.08
26839;BME280;40088;51.214;6.786;2023-06-22T02:25:37;101473.81;;;21.62;66.95
26839;BME280;40088;51.214;6.786;2023-06-22T02:35:37;101452.47;;;21.62;67.19
26839;BME280;40088;51.214;6.786;2023-06-22T02:45:37;101448.00;;;21.61;67.28
26839;BME280;40088;51.214;6.786;2023-06-22T02:55:38;101446.94;;;21.62;67.37
26839;BME280;40088;51.214;6.786;2023-06-22T03:05:39;101427.50;;;21.62;67.09
26839;BME280;40088;51.214;6.786;2023-06-22T03:15:40;101418.34;;;21.62;67.18
26839;BME280;40088;51.214;6.786;2023-06-22T03:25:41;101416.41;;;21.62;67.24
26839;BME280;40088;51.214;6.786;2023-06-22T03:35:42;101407.25;;;21.62;67.26
26839;BME280;40088;51.214;6.786;2023-06-22T03:45:42;101398.94;;;21.62;67.16
26839;BME280;40088;51.214;6.786;2023-06-22T03:55:49;101388.69;;;21.62;67.06
26839;BME280;40088;51.214;6.786;2023-06-22T04:05:50;101399.78;;;21.62;66.98
26839;BME280;40088;51.214;6.786;2023-06-22T04:15:50;101397.00;;;21.62;67.25
26839;BME280;40088;51.214;6.786;2023-06-22T04:25:51;101392.31;;;21.63;66.99
26839;BME280;40088;51.214;6.786;2023-06-22T04:35:52;101397.84;;;21.63;66.94
26839;BME280;40088;51.214;6.786;2023-06-22T04:45:52;101396.16;;;21.62;67.05
26839;BME280;40088;51.214;6.786;2023-06-22T04:55:52;101406.19;;;21.63;67.13
26839;BME280;40088;51.214;6.786;2023-06-22T05:05:53;101408.94;;;21.63;67.32
26839;BME280;40088;51.214;6.786;2023-06-22T05:15:53;101397.00;;;21.62;67.23
26839;BME280;40088;51.214;6.786;2023-06-22T05:26:01;101407.25;;;21.62;67.07
26839;BME280;40088;51.214;6.786;2023-06-22T05:36:01;101415.34;;;21.63;67.12
26839;BME280;40088;51.214;6.786;2023-06-22T05:46:04;101417.28;;;21.63;67.24
26839;BME280;40088;51.214;6.786;2023-06-22T05:56:05;101391.47;;;21.62;67.30
26839;BME280;40088;51.214;6.786;2023-06-22T06:06:05;101400.63;;;21.63;67.01
26839;BME280;40088;51.214;6.786;2023-06-22T06:16:05;101413.66;;;21.62;67.23
26839;BME280;40088;51.214;6.786;2023-06-22T06:26:06;101413.66;;;21.62;67.35
26839;BME280;40088;51.214;6.786;2023-06-22T06:36:08;101411.72;;;21.63;67.24
26839;BME280;40088;51.214;6.786;2023-06-22T06:46:09;101415.34;;;21.63;67.23
26839;BME280;40088;51.214;6.786;2023-06-22T06:56:09;101420.91;;;21.63;67.27
26839;BME280;40088;51.214;6.786;2023-06-22T07:06:10;101410.88;;;21.62;67.53
26839;BME280;40088;51.214;6.786;2023-06-22T07:16:11;101385.91;;;21.62;67.23
26839;BME280;40088;51.214;6.786;2023-06-22T07:26:11;101398.72;;;21.63;67.48
26839;BME280;40088;51.214;6.786;2023-06-22T07:36:12;101395.09;;;21.63;67.37
26839;BME280;40088;51.214;6.786;2023-06-22T07:46:13;101365.41;;;21.63;67.38
26839;BME280;40088;51.214;6.786;2023-06-22T07:56:13;101346.84;;;21.64;67.57
26839;BME280;40088;51.214;6.786;2023-06-22T08:06:14;101312.72;;;21.63;67.71
26839;BME280;40088;51.214;6.786;2023-06-22T08:16:14;101297.16;;;21.62;67.92
26839;BME280;40088;51.214;6.786;2023-06-22T08:26:15;101294.16;;;21.64;67.59
26839;BME280;40088;51.214;6.786;2023-06-22T08:36:15;101299.72;;;21.64;68.01
26839;BME280;40088;51.214;6.786;2023-06-22T08:46:16;101283.06;;;21.64;67.63
26839;BME280;40088;51.214;6.786;2023-06-22T08:56:20;101265.56;;;21.63;67.87
26839;BME280;40088;51.214;6.786;2023-06-22T09:06:21;101237.84;;;21.63;67.75
26839;BME280;40088;51.214;6.786;2023-06-22T09:16:21;101248.94;;;21.63;68.02
26839;BME280;40088;51.214;6.786;2023-06-22T09:26:21;101248.94;;;21.63;68.08
26839;BME280;40088;51.214;6.786;2023-06-22T09:36:23;101213.72;;;21.64;67.95
26839;BME280;40088;51.214;6.786;2023-06-22T09:46:24;101199.00;;;21.63;67.88
26839;BME280;40088;51.214;6.786;2023-06-22T09:56:27;101191.53;;;21.64;68.00
26839;BME280;40088;51.214;6.786;2023-06-22T10:06:30;101188.78;;;21.64;68.04
26839;BME280;40088;51.214;6.786;2023-06-22T10:16:31;101195.16;;;21.64;68.03
26839;BME280;40088;51.214;6.786;2023-06-22T10:26:32;101200.72;;;21.64;68.16
26839;BME280;40088;51.214;6.786;2023-06-22T10:36:33;101225.69;;;21.64;67.92
26839;BME280;40088;51.214;6.786;2023-06-22T10:46:33;101244.00;;;21.65;68.23
26839;BME280;40088;51.214;6.786;2023-06-22T10:56:33;101272.81;;;21.64;68.09
26839;BME280;40088;51.214;6.786;2023-06-22T11:06:33;101306.09;;;21.64;68.19
26839;BME280;40088;51.214;6.786;2023-06-22T11:16:34;101301.41;;;21.65;68.07
26839;BME280;40088;51.214;6.786;2023-06-22T11:26:34;101268.97;;;21.65;68.15
26839;BME280;40088;51.214;6.786;2023-06-22T11:36:35;101222.69;;;21.66;68.01
26839;BME280;40088;51.214;6.786;2023-06-22T11:46:35;101174.69;;;21.65;68.21
26839;BME280;40088;51.214;6.786;2023-06-22T11:56:35;101131.38;;;21.64;68.25
26839;BME280;40088;51.214;6.786;2023-06-22T12:06:37;101084.88;;;21.66;68.29
26839;BME280;40088;51.214;6.786;2023-06-22T12:16:38;101101.53;;;21.66;68.44
26839;BME280;40088;51.214;6.786;2023-06-22T12:26:38;101107.06;;;21.66;68.38
26839;BME280;40088;51.214;6.786;2023-06-22T12:36:39;101076.56;;;21.66;68.58
26839;BME280;40088;51.214;6.786;2023-06-22T12:46:39;101082.09;;;21.66;68.56
26839;BME280;40088;51.214;6.786;2023-06-22T12:56:39;101074.63;;;21.67;68.78
26839;BME280;40088;51.214;6.786;2023-06-22T13:06:44;101071.84;;;21.67;68.60
26839;BME280;40088;51.214;6.786;2023-06-22T13:16:47;101049.69;;;21.67;68.60
26839;BME280;40088;51.214;6.786;2023-06-22T13:26:47;101038.56;;;21.67;68.89
26839;BME280;40088;51.214;6.786;2023-06-22T13:36:47;101012.78;;;21.66;68.62
26839;BME280;40088;51.214;6.786;2023-06-22T13:46:48;101000.59;;;21.67;69.08
26839;BME280;40088;51.214;6.786;2023-06-22T13:56:48;100982.03;;;21.68;68.90
26839;BME280;40088;51.214;6.786;2023-06-22T14:06:48;100962.63;;;21.68;69.02
26839;BME280;40088;51.214;6.786;2023-06-22T14:16:49;100923.78;;;21.68;68.81
26839;BME280;40088;51.214;6.786;2023-06-22T14:26:49;100922.94;;;21.67;68.97
26839;BME280;40088;51.214;6.786;2023-06-22T14:36:50;100910.78;;;21.68;69.06
26839;BME280;40088;51.214;6.786;2023-06-22T14:46:50;100856.38;;;21.67;69.18
26839;BME280;40088;51.214;6.786;2023-06-22T14:56:50;100839.75;;;21.67;69.00
26839;BME280;40088;51.214;6.786;2023-06-22T15:06:51;100803.69;;;21.67;69.33
26839;BME280;40088;51.214;6.786;2023-06-22T15:16:51;100791.50;;;21.68;69.26
26839;BME280;40088;51.214;6.786;2023-06-22T15:26:51;100759.06;;;21.69;69.24
26839;BME280;40088;51.214;6.786;2023-06-22T15:36:52;100773.78;;;21.69;69.08
26839;BME280;40088;51.214;6.786;2023-06-22T15:46:52;100783.19;;;21.68;69.08
26839;BME280;40088;51.214;6.786;2023-06-22T15:56:52;100814.53;;;21.69;69.39
26839;BME280;40088;51.214;6.786;2023-06-22T16:06:53;100747.13;;;21.68;69.50
26839;BME280;40088;51.214;6.786;2023-06-22T16:16:53;100738.81;;;21.68;69.33
26839;BME280;40088;51.214;6.786;2023-06-22T16:26:53;100747.97;;;21.69;69.68
26839;BME280;40088;51.214;6.786;2023-06-22T16:36:54;100718.31;;;21.69;69.53
26839;BME280;40088;51.214;6.786;2023-06-22T16:46:55;100693.34;;;21.69;69.50
26839;BME280;40088;51.214;6.786;2023-06-22T16:56:59;100673.94;;;21.69;69.70
26839;BME280;40088;51.214;6.786;2023-06-22T17:07:07;100671.19;;;21.69;69.34
26839;BME280;40088;51.214;6.786;2023-06-22T17:17:08;100672.00;;;21.70;69.89
26839;BME280;40088;51.214;6.786;2023-06-22T17:27:09;100688.66;;;21.70;69.69
26839;BME280;40088;51.214;6.786;2023-06-22T17:37:09;100671.19;;;21.69;69.40
26839;BME280;40088;51.214;6.786;2023-06-22T17:47:09;100662.84;;;21.69;69.58
26839;BME280;40088;51.214;6.786;2023-06-22T17:57:18;100647.06;;;21.70;69.97
26839;BME280;40088;51.214;6.786;2023-06-22T18:07:19;100661.78;;;21.70;69.91
26839;BME280;40088;51.214;6.786;2023-06-22T18:17:20;100682.25;;;21.69;69.69
26839;BME280;40088;51.214;6.786;2023-06-22T18:27:22;100683.13;;;21.70;69.77
26839;BME280;40088;51.214;6.786;2023-06-22T18:37:22;100678.66;;;21.69;69.91
26839;BME280;40088;51.214;6.786;2023-06-22T18:47:30;100682.25;;;21.69;69.63
26839;BME280;40088;51.214;6.786;2023-06-22T18:57:32;100698.91;;;21.69;69.86
26839;BME280;40088;51.214;6.786;2023-06-22T19:17:51;100759.91;;;21.69;70.23
26839;BME280;40088;51.214;6.786;2023-06-22T19:27:52;100772.94;;;21.69;70.16
26839;BME280;40088;51.214;6.786;2023-06-22T19:37:54;100825.63;;;21.69;69.95
26839;BME280;40088;51.214;6.786;2023-06-22T19:47:56;100825.63;;;21.69;69.98
26839;BME280;40088;51.214;6.786;2023-06-22T19:57:56;100822.88;;;21.69;69.98
26839;BME280;40088;51.214;6.786;2023-06-22T20:08:02;100856.38;;;21.67;70.02
26839;BME280;40088;51.214;6.786;2023-06-22T20:18:03;100871.09;;;21.68;70.13
26839;BME280;40088;51.214;6.786;2023-06-22T20:28:10;100889.66;;;21.67;69.82
26839;BME280;40088;51.214;6.786;2023-06-22T20:38:10;100934.88;;;21.68;69.89
26839;BME280;40088;51.214;6.786;2023-06-22T20:48:13;100928.50;;;21.67;69.90
26839;BME280;40088;51.214;6.786;2023-06-22T20:58:14;100934.03;;;21.67;69.87
26839;BME280;40088;51.214;6.786;2023-06-22T21:08:14;100960.06;;;21.66;69.98
26839;BME280;40088;51.214;6.786;2023-06-22T21:18:16;101022.78;;;21.67;69.89
26839;BME280;40088;51.214;6.786;2023-06-22T21:28:16;101050.53;;;21.67;69.73
26839;BME280;40088;51.214;6.786;2023-06-22T21:38:17;101069.09;;;21.67;69.87
26839;BME280;40088;51.214;6.786;2023-06-22T21:48:18;101114.31;;;21.67;69.47
26839;BME280;40088;51.214;6.786;2023-06-22T21:58:20;101155.06;;;21.67;70.00
26839;BME280;40088;51.214;6.786;2023-06-22T22:08:24;101181.94;;;21.66;69.58
26839;BME280;40088;51.214;6.786;2023-06-22T22:18:24;101181.94;;;21.66;69.52
26839;BME280;40088;51.214;6.786;2023-06-22T22:28:27;101200.28;;;21.67;69.59
26839;BME280;40088;51.214;6.786;2023-06-22T22:38:27;101197.72;;;21.66;69.45
26839;BME280;40088;51.214;6.786;2023-06-22T22:48:27;101211.59;;;21.66;69.53
26839;BME280;40088;51.214;6.786;2023-06-22T22:58:31;101205.19;;;21.65;69.45
26839;BME280;40088;51.214;6.786;2023-06-22T23:08:31;101223.75;;;21.65;69.39
26839;BME280;40088;51.214;6.786;2023-06-22T23:18:31;101252.34;;;21.65;69.67
26839;BME280;40088;51.214;6.786;2023-06-22T23:28:32;101273.66;;;21.65;69.59
26839;BME280;40088;51.214;6.786;2023-06-22T23:38:34;101295.00;;;21.64;69.48
26839;BME280;40088;51.214;6.786;2023-06-22T23:48:34;101315.50;;;21.63;69.25
26839;BME280;40088;51.214;6.786;2023-06-22T23:58:34;101343.25;;;21.63;69.14
